Terminal Aerodrome Forecast
Issued by NWS Charleston, WV

Home | Current Version | Previous Version | Text Only | Print | Product List | Glossary On
Versions: 1 2 3 4 5 6 7 8 9 10 11 12 13 14 15 16 17 18 19 20 21 22 23 24
000
FTUS41 KRLX 010500 RRA
TAFHTS
TAF
KHTS 010545Z 0106/0206 VRB03KT P6SM OVC060
     FM011100 VRB03KT 5SM -FZRAPL OVC030
     FM011400 17003KT 4SM -RA BR OVC025
     FM012300 27005KT 3SM -RA BR OVC012=

USA.gov is the U.S. government's official web portal to all federal, state and local government web resources and services.